sensor_id;sensor_type;location;lat;lon;timestamp;temperature;humidity
4183;DHT22;2105;52.300;9.182;2023-04-03T00:00:06;1.70;1.00
4183;DHT22;2105;52.300;9.182;2023-04-03T00:02:34;1.60;1.00
4183;DHT22;2105;52.300;9.182;2023-04-03T00:05:00;1.60;99.90
4183;DHT22;2105;52.300;9.182;2023-04-03T00:07:27;1.60;99.90
4183;DHT22;2105;52.300;9.182;2023-04-03T00:09:54;1.60;99.90
4183;DHT22;2105;52.300;9.182;2023-04-03T00:12:21;1.60;99.90
4183;DHT22;2105;52.300;9.182;2023-04-03T00:14:49;1.60;99.90
4183;DHT22;2105;52.300;9.182;2023-04-03T00:17:15;1.50;1.00
4183;DHT22;2105;52.300;9.182;2023-04-03T00:19:42;1.40;1.00
4183;DHT22;2105;52.300;9.182;2023-04-03T00:22:09;1.40;1.00
4183;DHT22;2105;52.300;9.182;2023-04-03T00:24:35;1.40;99.90
4183;DHT22;2105;52.300;9.182;2023-04-03T00:27:02;1.40;1.00
4183;DHT22;2105;52.300;9.182;2023-04-03T00:29:29;1.40;1.00
4183;DHT22;2105;52.300;9.182;2023-04-03T00:31:57;1.40;1.00
4183;DHT22;2105;52.300;9.182;2023-04-03T00:34:24;1.30;39.90
4183;DHT22;2105;52.300;9.182;2023-04-03T00:36:51;1.40;99.90
4183;DHT22;2105;52.300;9.182;2023-04-03T00:39:17;1.40;99.90
4183;DHT22;2105;52.300;9.182;2023-04-03T00:41:44;1.20;99.90
4183;DHT22;2105;52.300;9.182;2023-04-03T00:44:20;1.20;99.90
4183;DHT22;2105;52.300;9.182;2023-04-03T00:46:46;1.10;1.00
4183;DHT22;2105;52.300;9.182;2023-04-03T00:49:15;1.00;1.00
4183;DHT22;2105;52.300;9.182;2023-04-03T00:51:42;0.90;99.90
4183;DHT22;2105;52.300;9.182;2023-04-03T00:54:08;0.90;1.00
4183;DHT22;2105;52.300;9.182;2023-04-03T00:56:36;0.90;1.00
4183;DHT22;2105;52.300;9.182;2023-04-03T00:59:06;0.90;99.90
4183;DHT22;2105;52.300;9.182;2023-04-03T01:01:35;0.90;99.90
4183;DHT22;2105;52.300;9.182;2023-04-03T01:04:02;0.90;99.90
4183;DHT22;2105;52.300;9.182;2023-04-03T01:06:35;0.90;1.00
4183;DHT22;2105;52.300;9.182;2023-04-03T01:09:03;1.00;99.90
4183;DHT22;2105;52.300;9.182;2023-04-03T01:11:31;1.00;60.50
4183;DHT22;2105;52.300;9.182;2023-04-03T01:16:27;1.00;1.00
4183;DHT22;2105;52.300;9.182;2023-04-03T01:18:56;0.90;1.00
4183;DHT22;2105;52.300;9.182;2023-04-03T01:21:50;0.80;1.00
4183;DHT22;2105;52.300;9.182;2023-04-03T01:24:33;0.80;60.80
4183;DHT22;2105;52.300;9.182;2023-04-03T01:27:02;0.80;99.90
4183;DHT22;2105;52.300;9.182;2023-04-03T01:29:29;0.80;99.90
4183;DHT22;2105;52.300;9.182;2023-04-03T01:31:58;0.80;99.90
4183;DHT22;2105;52.300;9.182;2023-04-03T01:34:27;0.70;99.90
4183;DHT22;2105;52.300;9.182;2023-04-03T01:36:54;0.70;1.00
4183;DHT22;2105;52.300;9.182;2023-04-03T01:39:21;0.70;1.00
4183;DHT22;2105;52.300;9.182;2023-04-03T01:41:49;0.70;1.00
4183;DHT22;2105;52.300;9.182;2023-04-03T01:44:15;0.60;90.80
4183;DHT22;2105;52.300;9.182;2023-04-03T01:46:42;0.50;99.90
4183;DHT22;2105;52.300;9.182;2023-04-03T01:49:10;0.50;99.90
4183;DHT22;2105;52.300;9.182;2023-04-03T01:51:37;0.50;1.00
4183;DHT22;2105;52.300;9.182;2023-04-03T01:54:04;0.50;1.00
4183;DHT22;2105;52.300;9.182;2023-04-03T01:56:30;0.50;58.50
4183;DHT22;2105;52.300;9.182;2023-04-03T01:58:57;0.50;99.90
4183;DHT22;2105;52.300;9.182;2023-04-03T02:01:24;0.60;1.00
4183;DHT22;2105;52.300;9.182;2023-04-03T02:03:51;0.60;99.90
4183;DHT22;2105;52.300;9.182;2023-04-03T02:06:19;0.60;1.00
4183;DHT22;2105;52.300;9.182;2023-04-03T02:08:45;0.60;99.90
4183;DHT22;2105;52.300;9.182;2023-04-03T02:11:12;0.70;99.90
4183;DHT22;2105;52.300;9.182;2023-04-03T02:13:39;0.60;99.90
4183;DHT22;2105;52.300;9.182;2023-04-03T02:16:07;0.60;99.90
4183;DHT22;2105;52.300;9.182;2023-04-03T02:18:35;0.50;99.90
4183;DHT22;2105;52.300;9.182;2023-04-03T02:21:03;0.50;99.90
4183;DHT22;2105;52.300;9.182;2023-04-03T02:23:31;0.50;1.00
4183;DHT22;2105;52.300;9.182;2023-04-03T02:26:09;0.50;99.90
4183;DHT22;2105;52.300;9.182;2023-04-03T02:28:36;0.40;1.00
4183;DHT22;2105;52.300;9.182;2023-04-03T02:31:04;0.50;99.90
4183;DHT22;2105;52.300;9.182;2023-04-03T02:33:31;0.40;1.00
4183;DHT22;2105;52.300;9.182;2023-04-03T02:35:58;0.40;82.00
4183;DHT22;2105;52.300;9.182;2023-04-03T02:38:25;0.30;1.00
4183;DHT22;2105;52.300;9.182;2023-04-03T02:40:57;0.20;1.00
4183;DHT22;2105;52.300;9.182;2023-04-03T02:43:25;0.20;99.90
4183;DHT22;2105;52.300;9.182;2023-04-03T02:45:52;0.30;1.00
4183;DHT22;2105;52.300;9.182;2023-04-03T02:48:18;0.20;1.00
4183;DHT22;2105;52.300;9.182;2023-04-03T02:50:45;0.30;99.90
4183;DHT22;2105;52.300;9.182;2023-04-03T02:53:12;0.30;1.00
4183;DHT22;2105;52.300;9.182;2023-04-03T02:55:38;0.20;1.00
4183;DHT22;2105;52.300;9.182;2023-04-03T02:58:07;0.20;1.00
4183;DHT22;2105;52.300;9.182;2023-04-03T03:00:34;0.20;1.00
4183;DHT22;2105;52.300;9.182;2023-04-03T03:03:01;0.20;99.90
4183;DHT22;2105;52.300;9.182;2023-04-03T03:05:28;0.00;1.00
4183;DHT22;2105;52.300;9.182;2023-04-03T03:07:55;-0.10;1.00
4183;DHT22;2105;52.300;9.182;2023-04-03T03:10:22;-0.20;1.00
4183;DHT22;2105;52.300;9.182;2023-04-03T03:12:49;-0.20;99.90
4183;DHT22;2105;52.300;9.182;2023-04-03T03:15:17;-0.10;1.00
4183;DHT22;2105;52.300;9.182;2023-04-03T03:17:45;-0.10;99.90
4183;DHT22;2105;52.300;9.182;2023-04-03T03:20:12;-0.20;1.00
4183;DHT22;2105;52.300;9.182;2023-04-03T03:22:40;-0.20;99.90
4183;DHT22;2105;52.300;9.182;2023-04-03T03:25:08;-0.10;1.00
4183;DHT22;2105;52.300;9.182;2023-04-03T03:27:34;-0.10;1.00
4183;DHT22;2105;52.300;9.182;2023-04-03T03:30:01;-0.20;1.00
4183;DHT22;2105;52.300;9.182;2023-04-03T03:32:29;-0.30;29.80
4183;DHT22;2105;52.300;9.182;2023-04-03T03:34:56;-0.30;99.90
4183;DHT22;2105;52.300;9.182;2023-04-03T03:37:22;-0.30;1.00
4183;DHT22;2105;52.300;9.182;2023-04-03T03:39:49;-0.40;99.90
4183;DHT22;2105;52.300;9.182;2023-04-03T03:42:15;-0.40;1.00
4183;DHT22;2105;52.300;9.182;2023-04-03T03:44:42;-0.40;1.00
4183;DHT22;2105;52.300;9.182;2023-04-03T03:47:09;-0.50;1.00
4183;DHT22;2105;52.300;9.182;2023-04-03T03:49:37;-0.50;1.00
4183;DHT22;2105;52.300;9.182;2023-04-03T03:52:04;-0.60;99.90
4183;DHT22;2105;52.300;9.182;2023-04-03T03:54:31;-0.70;1.00
4183;DHT22;2105;52.300;9.182;2023-04-03T03:56:57;-0.70;99.90
4183;DHT22;2105;52.300;9.182;2023-04-03T03:59:24;-0.80;1.00
4183;DHT22;2105;52.300;9.182;2023-04-03T04:01:51;-0.80;1.00
4183;DHT22;2105;52.300;9.182;2023-04-03T04:04:18;-0.70;23.00
4183;DHT22;2105;52.300;9.182;2023-04-03T04:06:46;-0.60;1.00
4183;DHT22;2105;52.300;9.182;2023-04-03T04:09:13;-0.60;99.90
4183;DHT22;2105;52.300;9.182;2023-04-03T04:11:40;-0.40;1.00
4183;DHT22;2105;52.300;9.182;2023-04-03T04:14:07;-0.30;1.00
4183;DHT22;2105;52.300;9.182;2023-04-03T04:16:35;-0.20;1.00
4183;DHT22;2105;52.300;9.182;2023-04-03T04:19:02;-0.20;99.90
4183;DHT22;2105;52.300;9.182;2023-04-03T04:21:28;-0.30;1.00
4183;DHT22;2105;52.300;9.182;2023-04-03T04:23:56;-0.30;99.90
4183;DHT22;2105;52.300;9.182;2023-04-03T04:26:23;-0.30;99.90
4183;DHT22;2105;52.300;9.182;2023-04-03T04:28:50;-0.40;1.00
4183;DHT22;2105;52.300;9.182;2023-04-03T04:31:16;-0.50;1.00
4183;DHT22;2105;52.300;9.182;2023-04-03T04:33:43;-0.50;99.90
4183;DHT22;2105;52.300;9.182;2023-04-03T04:36:10;-0.70;1.00
4183;DHT22;2105;52.300;9.182;2023-04-03T04:38:36;-0.70;1.00
4183;DHT22;2105;52.300;9.182;2023-04-03T04:41:05;-0.80;1.00
4183;DHT22;2105;52.300;9.182;2023-04-03T04:43:31;-0.80;99.90
4183;DHT22;2105;52.300;9.182;2023-04-03T04:46:02;-0.80;88.60
4183;DHT22;2105;52.300;9.182;2023-04-03T04:48:29;-0.70;18.60
4183;DHT22;2105;52.300;9.182;2023-04-03T04:50:56;-0.70;1.00
4183;DHT22;2105;52.300;9.182;2023-04-03T04:53:23;-0.70;1.00
4183;DHT22;2105;52.300;9.182;2023-04-03T04:55:49;-0.70;99.90
4183;DHT22;2105;52.300;9.182;2023-04-03T04:58:18;-0.60;99.90
4183;DHT22;2105;52.300;9.182;2023-04-03T05:00:45;-0.60;99.90
4183;DHT22;2105;52.300;9.182;2023-04-03T05:03:12;-0.60;99.90
4183;DHT22;2105;52.300;9.182;2023-04-03T05:05:38;-0.70;99.90
4183;DHT22;2105;52.300;9.182;2023-04-03T05:08:05;-0.80;1.00
4183;DHT22;2105;52.300;9.182;2023-04-03T05:10:33;-0.90;99.90
4183;DHT22;2105;52.300;9.182;2023-04-03T05:13:00;-0.90;99.90
4183;DHT22;2105;52.300;9.182;2023-04-03T05:15:28;-1.00;1.00
4183;DHT22;2105;52.300;9.182;2023-04-03T05:17:55;-0.90;99.90
4183;DHT22;2105;52.300;9.182;2023-04-03T05:20:21;-0.70;5.30
4183;DHT22;2105;52.300;9.182;2023-04-03T05:22:48;-0.50;99.90
4183;DHT22;2105;52.300;9.182;2023-04-03T05:25:15;-0.40;99.90
4183;DHT22;2105;52.300;9.182;2023-04-03T05:27:41;-0.40;99.90
4183;DHT22;2105;52.300;9.182;2023-04-03T05:30:08;-0.30;99.90
4183;DHT22;2105;52.300;9.182;2023-04-03T05:32:37;-0.20;7.00
4183;DHT22;2105;52.300;9.182;2023-04-03T05:35:04;-0.10;99.90
4183;DHT22;2105;52.300;9.182;2023-04-03T05:37:33;-0.10;32.00
4183;DHT22;2105;52.300;9.182;2023-04-03T05:40:00;-0.10;99.90
4183;DHT22;2105;52.300;9.182;2023-04-03T05:42:26;-0.10;1.00
4183;DHT22;2105;52.300;9.182;2023-04-03T05:44:53;-0.10;1.00
4183;DHT22;2105;52.300;9.182;2023-04-03T05:47:20;-0.10;99.90
4183;DHT22;2105;52.300;9.182;2023-04-03T05:49:48;-0.10;1.00
4183;DHT22;2105;52.300;9.182;2023-04-03T05:52:20;0.10;1.00
4183;DHT22;2105;52.300;9.182;2023-04-03T05:54:48;0.40;99.90
4183;DHT22;2105;52.300;9.182;2023-04-03T05:57:15;0.60;99.90
4183;DHT22;2105;52.300;9.182;2023-04-03T05:59:42;0.90;99.90
4183;DHT22;2105;52.300;9.182;2023-04-03T06:02:10;1.00;1.00
4183;DHT22;2105;52.300;9.182;2023-04-03T06:04:38;1.10;99.90
4183;DHT22;2105;52.300;9.182;2023-04-03T06:07:06;1.20;1.00
4183;DHT22;2105;52.300;9.182;2023-04-03T06:09:33;1.30;99.90
4183;DHT22;2105;52.300;9.182;2023-04-03T06:12:00;1.50;1.00
4183;DHT22;2105;52.300;9.182;2023-04-03T06:14:27;1.70;8.80
4183;DHT22;2105;52.300;9.182;2023-04-03T06:16:54;1.90;99.90
4183;DHT22;2105;52.300;9.182;2023-04-03T06:19:22;2.20;1.00
4183;DHT22;2105;52.300;9.182;2023-04-03T06:21:48;2.60;1.00
4183;DHT22;2105;52.300;9.182;2023-04-03T06:24:17;3.10;99.90
4183;DHT22;2105;52.300;9.182;2023-04-03T06:26:45;3.40;99.90
4183;DHT22;2105;52.300;9.182;2023-04-03T06:29:12;3.60;1.00
4183;DHT22;2105;52.300;9.182;2023-04-03T06:31:38;3.60;99.90
4183;DHT22;2105;52.300;9.182;2023-04-03T06:34:05;3.50;99.90
4183;DHT22;2105;52.300;9.182;2023-04-03T06:36:32;3.50;99.90
4183;DHT22;2105;52.300;9.182;2023-04-03T06:38:59;3.30;99.90
4183;DHT22;2105;52.300;9.182;2023-04-03T06:41:28;3.30;99.90
4183;DHT22;2105;52.300;9.182;2023-04-03T06:43:54;3.30;99.90
4183;DHT22;2105;52.300;9.182;2023-04-03T06:46:24;3.40;99.90
4183;DHT22;2105;52.300;9.182;2023-04-03T06:48:51;3.70;99.90
4183;DHT22;2105;52.300;9.182;2023-04-03T06:51:20;4.60;49.60
4183;DHT22;2105;52.300;9.182;2023-04-03T06:53:48;5.50;1.00
4183;DHT22;2105;52.300;9.182;2023-04-03T06:56:15;6.30;1.00
4183;DHT22;2105;52.300;9.182;2023-04-03T06:58:43;6.70;99.90
4183;DHT22;2105;52.300;9.182;2023-04-03T07:01:12;7.20;99.90
4183;DHT22;2105;52.300;9.182;2023-04-03T07:03:40;7.40;99.90
4183;DHT22;2105;52.300;9.182;2023-04-03T07:06:07;7.10;99.90
4183;DHT22;2105;52.300;9.182;2023-04-03T07:08:35;7.30;99.90
4183;DHT22;2105;52.300;9.182;2023-04-03T07:11:02;7.10;99.90
4183;DHT22;2105;52.300;9.182;2023-04-03T07:13:29;6.70;99.90
4183;DHT22;2105;52.300;9.182;2023-04-03T07:15:57;6.60;99.90
4183;DHT22;2105;52.300;9.182;2023-04-03T07:18:24;6.90;99.90
4183;DHT22;2105;52.300;9.182;2023-04-03T07:20:50;7.10;99.90
4183;DHT22;2105;52.300;9.182;2023-04-03T07:23:17;7.50;99.90
4183;DHT22;2105;52.300;9.182;2023-04-03T07:25:45;8.50;99.90
4183;DHT22;2105;52.300;9.182;2023-04-03T07:28:12;8.90;51.10
4183;DHT22;2105;52.300;9.182;2023-04-03T07:30:44;8.40;27.50
4183;DHT22;2105;52.300;9.182;2023-04-03T07:33:14;7.60;41.20
4183;DHT22;2105;52.300;9.182;2023-04-03T07:35:42;7.40;54.90
4183;DHT22;2105;52.300;9.182;2023-04-03T07:38:09;7.40;86.20
4183;DHT22;2105;52.300;9.182;2023-04-03T07:40:37;8.00;86.60
4183;DHT22;2105;52.300;9.182;2023-04-03T07:43:04;9.10;22.00
4183;DHT22;2105;52.300;9.182;2023-04-03T07:45:31;9.60;1.00
4183;DHT22;2105;52.300;9.182;2023-04-03T07:47:59;9.70;1.00
4183;DHT22;2105;52.300;9.182;2023-04-03T07:50:28;9.50;1.00
4183;DHT22;2105;52.300;9.182;2023-04-03T07:52:55;9.80;1.00
4183;DHT22;2105;52.300;9.182;2023-04-03T07:55:23;9.30;1.00
4183;DHT22;2105;52.300;9.182;2023-04-03T07:57:49;9.20;1.00
4183;DHT22;2105;52.300;9.182;2023-04-03T08:00:17;9.40;1.00
4183;DHT22;2105;52.300;9.182;2023-04-03T08:02:45;9.60;1.00
4183;DHT22;2105;52.300;9.182;2023-04-03T08:05:15;9.50;1.00
4183;DHT22;2105;52.300;9.182;2023-04-03T08:07:43;9.50;1.00
4183;DHT22;2105;52.300;9.182;2023-04-03T08:10:10;9.40;1.00
4183;DHT22;2105;52.300;9.182;2023-04-03T08:12:37;8.90;1.00
4183;DHT22;2105;52.300;9.182;2023-04-03T08:15:05;8.80;1.00
4183;DHT22;2105;52.300;9.182;2023-04-03T08:17:32;8.50;1.00
4183;DHT22;2105;52.300;9.182;2023-04-03T08:20:00;8.40;1.00
4183;DHT22;2105;52.300;9.182;2023-04-03T08:22:26;8.10;1.00
4183;DHT22;2105;52.300;9.182;2023-04-03T08:24:54;7.70;1.00
4183;DHT22;2105;52.300;9.182;2023-04-03T08:27:21;7.30;1.00
4183;DHT22;2105;52.300;9.182;2023-04-03T08:29:48;6.80;1.00
4183;DHT22;2105;52.300;9.182;2023-04-03T08:32:14;6.50;1.00
4183;DHT22;2105;52.300;9.182;2023-04-03T08:34:41;6.10;1.40
4183;DHT22;2105;52.300;9.182;2023-04-03T08:37:08;5.90;22.70
4183;DHT22;2105;52.300;9.182;2023-04-03T08:39:35;5.60;26.60
4183;DHT22;2105;52.300;9.182;2023-04-03T08:42:07;5.60;55.50
4183;DHT22;2105;52.300;9.182;2023-04-03T08:44:45;5.80;77.30
4183;DHT22;2105;52.300;9.182;2023-04-03T08:47:20;5.80;85.40
4183;DHT22;2105;52.300;9.182;2023-04-03T08:49:52;5.80;82.00
4183;DHT22;2105;52.300;9.182;2023-04-03T08:52:25;5.80;84.80
4183;DHT22;2105;52.300;9.182;2023-04-03T08:54:56;5.80;99.90
4183;DHT22;2105;52.300;9.182;2023-04-03T08:57:31;5.90;99.90
4183;DHT22;2105;52.300;9.182;2023-04-03T09:00:03;6.10;99.90
4183;DHT22;2105;52.300;9.182;2023-04-03T09:02:33;6.20;95.90
4183;DHT22;2105;52.300;9.182;2023-04-03T09:05:02;6.40;87.00
4183;DHT22;2105;52.300;9.182;2023-04-03T09:07:35;6.80;99.90
4183;DHT22;2105;52.300;9.182;2023-04-03T09:10:04;7.00;63.90
4183;DHT22;2105;52.300;9.182;2023-04-03T09:12:35;7.20;43.60
4183;DHT22;2105;52.300;9.182;2023-04-03T09:15:12;7.20;32.20
4183;DHT22;2105;52.300;9.182;2023-04-03T09:17:49;7.40;15.90
4183;DHT22;2105;52.300;9.182;2023-04-03T09:20:23;7.50;13.00
4183;DHT22;2105;52.300;9.182;2023-04-03T09:22:54;7.70;3.40
4183;DHT22;2105;52.300;9.182;2023-04-03T09:25:23;7.80;6.00
4183;DHT22;2105;52.300;9.182;2023-04-03T09:27:52;7.70;1.00
4183;DHT22;2105;52.300;9.182;2023-04-03T09:30:21;7.60;1.00
4183;DHT22;2105;52.300;9.182;2023-04-03T09:32:50;7.70;1.00
4183;DHT22;2105;52.300;9.182;2023-04-03T09:35:20;7.90;1.00
4183;DHT22;2105;52.300;9.182;2023-04-03T09:37:49;7.90;1.00
4183;DHT22;2105;52.300;9.182;2023-04-03T09:40:34;7.80;1.00
4183;DHT22;2105;52.300;9.182;2023-04-03T09:43:24;8.10;1.00
4183;DHT22;2105;52.300;9.182;2023-04-03T09:45:52;8.30;1.00
4183;DHT22;2105;52.300;9.182;2023-04-03T09:48:20;7.90;1.00
4183;DHT22;2105;52.300;9.182;2023-04-03T09:51:09;7.80;1.00
4183;DHT22;2105;52.300;9.182;2023-04-03T09:53:43;7.50;1.00
4183;DHT22;2105;52.300;9.182;2023-04-03T09:56:19;7.30;1.00
4183;DHT22;2105;52.300;9.182;2023-04-03T09:58:49;7.50;1.00
4183;DHT22;2105;52.300;9.182;2023-04-03T10:01:27;7.50;1.00
4183;DHT22;2105;52.300;9.182;2023-04-03T10:04:09;7.30;1.00
4183;DHT22;2105;52.300;9.182;2023-04-03T10:06:38;6.90;1.00
4183;DHT22;2105;52.300;9.182;2023-04-03T10:09:18;6.70;1.00
4183;DHT22;2105;52.300;9.182;2023-04-03T10:12:00;6.60;1.00
4183;DHT22;2105;52.300;9.182;2023-04-03T10:14:29;7.10;1.00
4183;DHT22;2105;52.300;9.182;2023-04-03T10:17:01;7.60;1.00
4183;DHT22;2105;52.300;9.182;2023-04-03T10:19:34;7.50;1.00
4183;DHT22;2105;52.300;9.182;2023-04-03T10:22:06;7.10;1.00
4183;DHT22;2105;52.300;9.182;2023-04-03T10:24:47;7.00;1.00
4183;DHT22;2105;52.300;9.182;2023-04-03T10:27:19;6.70;1.00
4183;DHT22;2105;52.300;9.182;2023-04-03T10:29:52;6.90;1.00
4183;DHT22;2105;52.300;9.182;2023-04-03T10:32:34;7.60;1.00
4183;DHT22;2105;52.300;9.182;2023-04-03T10:35:08;8.30;1.00
4183;DHT22;2105;52.300;9.182;2023-04-03T10:37:51;8.80;1.00
4183;DHT22;2105;52.300;9.182;2023-04-03T10:40:25;8.80;1.00
4183;DHT22;2105;52.300;9.182;2023-04-03T10:43:03;8.20;1.00
4183;DHT22;2105;52.300;9.182;2023-04-03T10:45:46;7.90;1.00
4183;DHT22;2105;52.300;9.182;2023-04-03T10:48:21;8.50;1.00
4183;DHT22;2105;52.300;9.182;2023-04-03T10:50:58;8.80;1.00
4183;DHT22;2105;52.300;9.182;2023-04-03T10:53:32;8.70;1.00
4183;DHT22;2105;52.300;9.182;2023-04-03T10:56:07;8.70;1.00
4183;DHT22;2105;52.300;9.182;2023-04-03T10:58:39;8.40;1.00
4183;DHT22;2105;52.300;9.182;2023-04-03T11:01:11;8.20;1.00
4183;DHT22;2105;52.300;9.182;2023-04-03T11:03:42;8.00;1.00
4183;DHT22;2105;52.300;9.182;2023-04-03T11:06:12;8.00;1.00
4183;DHT22;2105;52.300;9.182;2023-04-03T11:08:44;8.00;1.00
4183;DHT22;2105;52.300;9.182;2023-04-03T11:11:15;8.10;1.00
4183;DHT22;2105;52.300;9.182;2023-04-03T11:13:46;7.80;1.00
4183;DHT22;2105;52.300;9.182;2023-04-03T11:16:21;7.70;1.00
4183;DHT22;2105;52.300;9.182;2023-04-03T11:18:52;7.70;1.00
4183;DHT22;2105;52.300;9.182;2023-04-03T11:21:24;8.00;1.00
4183;DHT22;2105;52.300;9.182;2023-04-03T11:23:57;8.80;1.00
4183;DHT22;2105;52.300;9.182;2023-04-03T11:26:27;9.50;1.00
4183;DHT22;2105;52.300;9.182;2023-04-03T11:28:58;10.10;1.00
4183;DHT22;2105;52.300;9.182;2023-04-03T11:31:35;10.60;1.00
4183;DHT22;2105;52.300;9.182;2023-04-03T11:34:14;10.30;1.00
4183;DHT22;2105;52.300;9.182;2023-04-03T11:36:46;9.70;1.00
4183;DHT22;2105;52.300;9.182;2023-04-03T11:39:20;9.30;1.00
4183;DHT22;2105;52.300;9.182;2023-04-03T11:41:49;9.10;1.00
4183;DHT22;2105;52.300;9.182;2023-04-03T11:44:33;8.90;1.00
4183;DHT22;2105;52.300;9.182;2023-04-03T11:47:03;8.70;1.00
4183;DHT22;2105;52.300;9.182;2023-04-03T11:49:53;8.80;1.00
4183;DHT22;2105;52.300;9.182;2023-04-03T11:52:59;8.70;1.00
4183;DHT22;2105;52.300;9.182;2023-04-03T11:55:56;8.60;1.00
4183;DHT22;2105;52.300;9.182;2023-04-03T11:58:24;8.50;1.00
4183;DHT22;2105;52.300;9.182;2023-04-03T12:01:00;8.40;1.00
4183;DHT22;2105;52.300;9.182;2023-04-03T12:03:33;8.40;1.00
4183;DHT22;2105;52.300;9.182;2023-04-03T12:09:22;9.60;1.00
4183;DHT22;2105;52.300;9.182;2023-04-03T12:11:49;9.80;1.00
4183;DHT22;2105;52.300;9.182;2023-04-03T12:14:16;9.60;1.00
4183;DHT22;2105;52.300;9.182;2023-04-03T12:16:45;9.10;1.00
4183;DHT22;2105;52.300;9.182;2023-04-03T12:19:37;8.90;1.00
4183;DHT22;2105;52.300;9.182;2023-04-03T12:22:17;8.90;1.00
4183;DHT22;2105;52.300;9.182;2023-04-03T12:24:48;9.00;1.00
4183;DHT22;2105;52.300;9.182;2023-04-03T12:27:23;9.20;1.00
4183;DHT22;2105;52.300;9.182;2023-04-03T12:29:58;9.30;1.00
4183;DHT22;2105;52.300;9.182;2023-04-03T12:32:37;9.60;1.00
4183;DHT22;2105;52.300;9.182;2023-04-03T12:35:21;10.20;1.00
4183;DHT22;2105;52.300;9.182;2023-04-03T12:38:22;10.50;1.00
4183;DHT22;2105;52.300;9.182;2023-04-03T12:40:57;10.10;1.00
4183;DHT22;2105;52.300;9.182;2023-04-03T12:43:39;9.60;1.00
4183;DHT22;2105;52.300;9.182;2023-04-03T12:46:14;9.30;1.00
4183;DHT22;2105;52.300;9.182;2023-04-03T12:48:48;9.10;1.00
4183;DHT22;2105;52.300;9.182;2023-04-03T12:51:19;9.00;1.00
4183;DHT22;2105;52.300;9.182;2023-04-03T12:53:49;8.90;1.00
4183;DHT22;2105;52.300;9.182;2023-04-03T12:56:24;8.70;1.00
4183;DHT22;2105;52.300;9.182;2023-04-03T12:58:52;8.80;1.00
4183;DHT22;2105;52.300;9.182;2023-04-03T13:01:24;9.40;1.00
4183;DHT22;2105;52.300;9.182;2023-04-03T13:03:54;9.90;1.00
4183;DHT22;2105;52.300;9.182;2023-04-03T13:06:26;10.60;1.00
4183;DHT22;2105;52.300;9.182;2023-04-03T13:08:54;10.50;1.00
4183;DHT22;2105;52.300;9.182;2023-04-03T13:11:24;10.20;1.00
4183;DHT22;2105;52.300;9.182;2023-04-03T13:13:59;9.80;1.00
4183;DHT22;2105;52.300;9.182;2023-04-03T13:16:26;9.70;1.00
4183;DHT22;2105;52.300;9.182;2023-04-03T13:18:54;9.70;1.00
4183;DHT22;2105;52.300;9.182;2023-04-03T13:21:24;10.10;1.00
4183;DHT22;2105;52.300;9.182;2023-04-03T13:23:53;10.60;1.00
4183;DHT22;2105;52.300;9.182;2023-04-03T13:26:22;11.00;1.00
4183;DHT22;2105;52.300;9.182;2023-04-03T13:28:52;10.80;1.00
4183;DHT22;2105;52.300;9.182;2023-04-03T13:31:22;10.70;1.00
4183;DHT22;2105;52.300;9.182;2023-04-03T13:33:57;10.50;1.00
4183;DHT22;2105;52.300;9.182;2023-04-03T13:36:29;10.30;1.00
4183;DHT22;2105;52.300;9.182;2023-04-03T13:39:01;9.80;1.00
4183;DHT22;2105;52.300;9.182;2023-04-03T13:41:30;9.60;1.00
4183;DHT22;2105;52.300;9.182;2023-04-03T13:44:16;9.50;1.00
4183;DHT22;2105;52.300;9.182;2023-04-03T13:46:44;9.90;1.00
4183;DHT22;2105;52.300;9.182;2023-04-03T13:49:21;10.30;1.00
4183;DHT22;2105;52.300;9.182;2023-04-03T13:51:49;10.60;1.00
4183;DHT22;2105;52.300;9.182;2023-04-03T13:54:19;10.60;1.00
4183;DHT22;2105;52.300;9.182;2023-04-03T13:56:52;10.70;1.00
4183;DHT22;2105;52.300;9.182;2023-04-03T13:59:22;10.60;1.00
4183;DHT22;2105;52.300;9.182;2023-04-03T14:01:52;10.10;1.00
4183;DHT22;2105;52.300;9.182;2023-04-03T14:04:21;9.80;1.00
4183;DHT22;2105;52.300;9.182;2023-04-03T14:06:49;9.60;1.00
4183;DHT22;2105;52.300;9.182;2023-04-03T14:09:18;9.20;1.00
4183;DHT22;2105;52.300;9.182;2023-04-03T14:11:46;9.20;1.00
4183;DHT22;2105;52.300;9.182;2023-04-03T14:14:16;9.60;1.00
4183;DHT22;2105;52.300;9.182;2023-04-03T14:16:53;10.00;1.00
4183;DHT22;2105;52.300;9.182;2023-04-03T14:19:23;10.50;1.00
4183;DHT22;2105;52.300;9.182;2023-04-03T14:21:51;11.00;1.00
4183;DHT22;2105;52.300;9.182;2023-04-03T14:24:19;11.00;1.00
4183;DHT22;2105;52.300;9.182;2023-04-03T14:26:47;11.10;1.00
4183;DHT22;2105;52.300;9.182;2023-04-03T14:29:14;10.90;1.00
4183;DHT22;2105;52.300;9.182;2023-04-03T14:31:42;10.40;1.00
4183;DHT22;2105;52.300;9.182;2023-04-03T14:34:10;10.00;1.00
4183;DHT22;2105;52.300;9.182;2023-04-03T14:36:37;9.50;1.00
4183;DHT22;2105;52.300;9.182;2023-04-03T14:39:07;9.10;1.00
4183;DHT22;2105;52.300;9.182;2023-04-03T14:41:35;9.30;1.00
4183;DHT22;2105;52.300;9.182;2023-04-03T14:44:02;9.60;1.00
4183;DHT22;2105;52.300;9.182;2023-04-03T14:46:31;9.90;1.00
4183;DHT22;2105;52.300;9.182;2023-04-03T14:48:59;10.20;1.00
4183;DHT22;2105;52.300;9.182;2023-04-03T14:51:25;10.30;1.00
4183;DHT22;2105;52.300;9.182;2023-04-03T14:53:52;10.60;1.00
4183;DHT22;2105;52.300;9.182;2023-04-03T14:56:25;10.70;1.00
4183;DHT22;2105;52.300;9.182;2023-04-03T14:58:55;10.90;1.00
4183;DHT22;2105;52.300;9.182;2023-04-03T15:01:22;10.20;1.00
4183;DHT22;2105;52.300;9.182;2023-04-03T15:03:49;9.90;1.00
4183;DHT22;2105;52.300;9.182;2023-04-03T15:06:16;9.80;1.00
4183;DHT22;2105;52.300;9.182;2023-04-03T15:08:43;9.90;1.00
4183;DHT22;2105;52.300;9.182;2023-04-03T15:11:10;10.10;1.00
4183;DHT22;2105;52.300;9.182;2023-04-03T15:13:39;10.20;1.00
4183;DHT22;2105;52.300;9.182;2023-04-03T15:16:10;10.20;1.00
4183;DHT22;2105;52.300;9.182;2023-04-03T15:18:39;10.20;1.00
4183;DHT22;2105;52.300;9.182;2023-04-03T15:21:05;9.80;1.00
4183;DHT22;2105;52.300;9.182;2023-04-03T15:23:32;9.40;1.00
4183;DHT22;2105;52.300;9.182;2023-04-03T15:25:59;9.30;1.00
4183;DHT22;2105;52.300;9.182;2023-04-03T15:28:28;8.90;1.00
4183;DHT22;2105;52.300;9.182;2023-04-03T15:30:57;8.80;1.00
4183;DHT22;2105;52.300;9.182;2023-04-03T15:33:24;8.80;1.00
4183;DHT22;2105;52.300;9.182;2023-04-03T15:35:51;8.90;1.00
4183;DHT22;2105;52.300;9.182;2023-04-03T15:38:18;9.10;1.00
4183;DHT22;2105;52.300;9.182;2023-04-03T15:40:45;9.20;1.00
4183;DHT22;2105;52.300;9.182;2023-04-03T15:43:13;9.30;1.00
4183;DHT22;2105;52.300;9.182;2023-04-03T15:45:40;9.30;1.00
4183;DHT22;2105;52.300;9.182;2023-04-03T15:48:09;9.30;1.00
4183;DHT22;2105;52.300;9.182;2023-04-03T15:50:37;9.30;1.00
4183;DHT22;2105;52.300;9.182;2023-04-03T15:53:04;9.10;1.00
4183;DHT22;2105;52.300;9.182;2023-04-03T15:55:32;8.90;1.00
4183;DHT22;2105;52.300;9.182;2023-04-03T15:57:59;8.90;1.00
4183;DHT22;2105;52.300;9.182;2023-04-03T16:00:26;8.90;1.00
4183;DHT22;2105;52.300;9.182;2023-04-03T16:02:57;8.90;1.00
4183;DHT22;2105;52.300;9.182;2023-04-03T16:05:26;8.70;1.00
4183;DHT22;2105;52.300;9.182;2023-04-03T16:07:53;8.70;1.00
4183;DHT22;2105;52.300;9.182;2023-04-03T16:10:21;8.70;1.00
4183;DHT22;2105;52.300;9.182;2023-04-03T16:12:47;8.70;1.00
4183;DHT22;2105;52.300;9.182;2023-04-03T16:15:14;8.80;1.00
4183;DHT22;2105;52.300;9.182;2023-04-03T16:17:41;8.90;1.00
4183;DHT22;2105;52.300;9.182;2023-04-03T16:20:09;9.00;1.00
4183;DHT22;2105;52.300;9.182;2023-04-03T16:22:38;9.10;1.00
4183;DHT22;2105;52.300;9.182;2023-04-03T16:25:06;9.10;1.00
4183;DHT22;2105;52.300;9.182;2023-04-03T16:27:34;9.00;1.00
4183;DHT22;2105;52.300;9.182;2023-04-03T16:30:00;8.80;1.00
4183;DHT22;2105;52.300;9.182;2023-04-03T16:32:29;8.60;1.00
4183;DHT22;2105;52.300;9.182;2023-04-03T16:34:57;8.40;1.00
4183;DHT22;2105;52.300;9.182;2023-04-03T16:37:23;8.10;1.00
4183;DHT22;2105;52.300;9.182;2023-04-03T16:39:52;8.00;1.00
4183;DHT22;2105;52.300;9.182;2023-04-03T16:42:18;7.80;1.00
4183;DHT22;2105;52.300;9.182;2023-04-03T16:44:45;7.70;1.00